Airfield :
LOGIN :

Register | Disclaimer

   EN    FR    IT 

 










Legend :    VFR   Marginal VFR   IFR   Intensive IFR   Very Intensive IFR
Visi :
Ceiling :
>= 8 km
>= 3000ft
5 to 8 km
1000 to 3000 ft
1500m to 5 km
500 to 1000 ft
800 to 1500m
200 to 500 ft
< 800m
< 200 ft
Symbols :   Thunderstorms  Fog  Heavy snow  Heavy precipitations  Wind > 20 kt
SIGMETs :     Misc.  Thunderstorms  Icing  Turbulence  Mountain Waves  Volcanic Ashes






- Airport Elevation : 489 ft
- IATA code : GDN


EPGD - Gdansk

CURRENT METAR :
  • 041230Z 26010KT 200V290 9999 FEW046 25/12 Q1015

EXPIRED METARs :
  • 041200Z 23012KT 190V260 CAVOK 25/12 Q1016
  • 041130Z 22011KT 190V260 9999 FEW043 25/13 Q1016
  • 041100Z 22010KT 180V260 CAVOK 24/14 Q1016
  • 041030Z 22009KT CAVOK 22/14 Q1016
  • 041000Z 19005KT 160V240 CAVOK 21/13 Q1016
  • 040930Z 12010KT 9999 FEW005 FEW060TCU 19/13 Q1015

TAF TAF EPGD
Valid from the 04 at 12:00 until the 05 at 12:00 UTC


041130Z 0412/0512 22008KT CAVOK
TEMPO 0412/0415 SHRA BKN040CB
PROB40
TEMPO 0412/0415 VRB20G30KT 2000 TSRA SCT014 BKN025CB
BECMG 0413/0415 29010KT
TEMPO 0423/0504 3000 BR



MET'MAP, your aeronautical weather chart ! - Copyright ORBIFLY December 2007 - Disclaimer

ORBIFLY MET'MAP TEAM :

Programming & Development : Alexandra Zaïnal
Original concept : Baudouin d'Aumeries
Technical & hardware support : Manuel Goepfert
Assistance : Marc-Olivier Méhu




SOURCES & CREDITS :

   NOAA